Morgantown Municipal Airport

About
Name: Morgantown Municipal Airport
Identifier:  MGW/KMGW
Serves:  Morgantown, West Virginia
Owner:  City of Morgantown
Public/Private:  Public
Local Time:  15. Sep 10:06 EDT
Description: Morgantown Municipal Airport is three miles east of Morgantown, in Monongalia County, West Virginia. It is also known as Walter L. Bill Hart Field. It sees one passenger airline, subsidized by the Essential Air Service program.
Source: Wikipedia
Location
Runways
Identifier Length (m/ft) Surface
18/36 5,199/5,199 Asphalt
Statistics
Flights per Day:
9 flights
Distance: 390km (242mi)
Flights delayed:
91% (0 flights per day delayed)
Delay Average: 3 minutes
Current Weather
 20 C (Humidity: 68%)
  0kt (0km/h / 0mph) from 0°
  16km (10 mi.)
 
 METAR KMGW 151353Z 00000KT 10SM CLR 20/14 A3028 RMK AO2 SLP248 T02000144 $

Current Flights

Arrivals

Current Delays

Departures
N/A
Arrivals
N/A

Destinations

Top Destinations
Airport Flights
per week
Seats
per week
  Pittsburgh (PIT) 44 - 6 0
  Baltimore (BWI) 26 - 3 0
  Wilmington (ILM) 0 - 0 0
  Charlottesville (CHO) 0 - 0 0
  Columbus (CMH) 0 - 0 0
  Richmond (RIC) 0 - 0 0

Airlines & Planes

Top Airlines
Airline Flights
per Day
Seats
per Day
Southern Airways Express 10 -
Gama Aviation 0 -
  Centennial Airlines 0 -
Top Plane Types
Model Flights Seats
Cessna C208 10.1/day - 0
Beech B300 Super King Air 350 0.1/day - 0
Pilatus PC-12 0.0/day - 0